Carrollton, Kentucky
Current Conditions -  °F | °C
As of 9:13 AM on Sunday 21 Dec 2014 (Local Time) from KIMS Reporting Station
Overcast Overcast  
Wind Chill: 27°   Ceiling: 1200
Heat Index: 32°   Visibility: 5mi
Dew Point: 27°   Wind: 5mph
Humidity: 80%   Direction: 100°E
Pressure: 30.32"   Gusts: NA
Location:  38.68°N, 85.18°W
Report Text: KIMS 211413Z AUTO 10004KT 5SM OVC012 00/M03 A3032 RMK AO1
Loading
Personal Weather Stations






























Interactive Weather Map New forecast layout! Learn more

10-Day Weather Forecast

Advertisements
Track Severe Weather on mobile